sensor_id;sensor_type;location;lat;lon;timestamp;P1;durP1;ratioP1;P2;durP2;ratioP2
69981;SDS011;57319;56.274;43.980;2023-04-24T00:00:41;8.27;;;1.63;;
69981;SDS011;57319;56.274;43.980;2023-04-24T00:03:07;2.35;;;2.00;;
69981;SDS011;57319;56.274;43.980;2023-04-24T00:05:33;2.10;;;1.85;;
69981;SDS011;57319;56.274;43.980;2023-04-24T00:07:59;1.98;;;1.83;;
69981;SDS011;57319;56.274;43.980;2023-04-24T00:10:25;1.60;;;1.60;;
69981;SDS011;57319;56.274;43.980;2023-04-24T00:12:51;2.03;;;1.80;;
69981;SDS011;57319;56.274;43.980;2023-04-24T00:15:16;4.03;;;2.10;;
69981;SDS011;57319;56.274;43.980;2023-04-24T00:17:42;2.05;;;1.73;;
69981;SDS011;57319;56.274;43.980;2023-04-24T00:20:08;3.85;;;1.70;;
69981;SDS011;57319;56.274;43.980;2023-04-24T00:22:35;11.65;;;1.65;;
69981;SDS011;57319;56.274;43.980;2023-04-24T00:25:01;8.38;;;2.00;;
69981;SDS011;57319;56.274;43.980;2023-04-24T00:27:27;2.10;;;1.90;;
69981;SDS011;57319;56.274;43.980;2023-04-24T00:29:52;1.55;;;1.55;;
69981;SDS011;57319;56.274;43.980;2023-04-24T00:32:18;13.25;;;2.50;;
69981;SDS011;57319;56.274;43.980;2023-04-24T00:34:44;5.55;;;1.88;;
69981;SDS011;57319;56.274;43.980;2023-04-24T00:37:09;4.43;;;1.92;;
69981;SDS011;57319;56.274;43.980;2023-04-24T00:39:36;2.40;;;1.70;;
69981;SDS011;57319;56.274;43.980;2023-04-24T00:42:02;2.65;;;1.83;;
69981;SDS011;57319;56.274;43.980;2023-04-24T00:44:28;1.95;;;1.73;;
69981;SDS011;57319;56.274;43.980;2023-04-24T00:46:54;2.42;;;2.08;;
69981;SDS011;57319;56.274;43.980;2023-04-24T00:49:21;2.67;;;1.60;;
69981;SDS011;57319;56.274;43.980;2023-04-24T00:51:48;1.73;;;1.63;;
69981;SDS011;57319;56.274;43.980;2023-04-24T00:54:17;7.28;;;2.03;;
69981;SDS011;57319;56.274;43.980;2023-04-24T00:56:43;4.00;;;1.58;;
69981;SDS011;57319;56.274;43.980;2023-04-24T00:59:11;2.13;;;1.90;;
69981;SDS011;57319;56.274;43.980;2023-04-24T01:01:37;5.93;;;1.88;;
69981;SDS011;57319;56.274;43.980;2023-04-24T01:04:07;2.08;;;1.88;;
69981;SDS011;57319;56.274;43.980;2023-04-24T01:06:35;1.80;;;1.70;;
69981;SDS011;57319;56.274;43.980;2023-04-24T01:09:05;3.47;;;2.17;;
69981;SDS011;57319;56.274;43.980;2023-04-24T01:11:33;5.40;;;2.20;;
69981;SDS011;57319;56.274;43.980;2023-04-24T01:13:59;1.90;;;1.80;;
69981;SDS011;57319;56.274;43.980;2023-04-24T01:16:25;8.98;;;2.08;;
69981;SDS011;57319;56.274;43.980;2023-04-24T01:18:51;3.58;;;2.13;;
69981;SDS011;57319;56.274;43.980;2023-04-24T01:21:16;2.20;;;2.10;;
69981;SDS011;57319;56.274;43.980;2023-04-24T01:23:45;2.15;;;2.05;;
69981;SDS011;57319;56.274;43.980;2023-04-24T01:26:12;12.35;;;2.58;;
69981;SDS011;57319;56.274;43.980;2023-04-24T01:28:39;7.35;;;2.05;;
69981;SDS011;57319;56.274;43.980;2023-04-24T01:31:05;7.97;;;1.95;;
69981;SDS011;57319;56.274;43.980;2023-04-24T01:33:31;2.40;;;1.90;;
69981;SDS011;57319;56.274;43.980;2023-04-24T01:35:57;5.22;;;2.40;;
69981;SDS011;57319;56.274;43.980;2023-04-24T01:38:23;8.02;;;2.35;;
69981;SDS011;57319;56.274;43.980;2023-04-24T01:40:49;5.10;;;2.15;;
69981;SDS011;57319;56.274;43.980;2023-04-24T01:43:15;6.53;;;2.00;;
69981;SDS011;57319;56.274;43.980;2023-04-24T01:45:41;3.22;;;2.25;;
69981;SDS011;57319;56.274;43.980;2023-04-24T01:48:07;9.07;;;2.22;;
69981;SDS011;57319;56.274;43.980;2023-04-24T01:50:32;10.18;;;2.58;;
69981;SDS011;57319;56.274;43.980;2023-04-24T01:52:58;2.35;;;1.75;;
69981;SDS011;57319;56.274;43.980;2023-04-24T01:55:24;15.25;;;2.53;;
69981;SDS011;57319;56.274;43.980;2023-04-24T01:57:49;2.72;;;2.50;;
69981;SDS011;57319;56.274;43.980;2023-04-24T02:00:17;13.38;;;2.88;;
69981;SDS011;57319;56.274;43.980;2023-04-24T02:02:42;13.90;;;3.10;;
69981;SDS011;57319;56.274;43.980;2023-04-24T02:05:09;7.15;;;2.03;;
69981;SDS011;57319;56.274;43.980;2023-04-24T02:07:35;4.97;;;2.97;;
69981;SDS011;57319;56.274;43.980;2023-04-24T02:10:00;7.53;;;2.00;;
69981;SDS011;57319;56.274;43.980;2023-04-24T02:12:27;6.40;;;2.72;;
69981;SDS011;57319;56.274;43.980;2023-04-24T02:14:53;3.30;;;2.45;;
69981;SDS011;57319;56.274;43.980;2023-04-24T02:17:18;20.33;;;2.30;;
69981;SDS011;57319;56.274;43.980;2023-04-24T02:19:44;5.15;;;2.10;;
69981;SDS011;57319;56.274;43.980;2023-04-24T02:22:11;14.68;;;3.15;;
69981;SDS011;57319;56.274;43.980;2023-04-24T02:24:37;5.18;;;2.03;;
69981;SDS011;57319;56.274;43.980;2023-04-24T02:27:04;6.07;;;2.38;;
69981;SDS011;57319;56.274;43.980;2023-04-24T02:29:30;5.68;;;2.17;;
69981;SDS011;57319;56.274;43.980;2023-04-24T02:31:56;10.70;;;3.03;;
69981;SDS011;57319;56.274;43.980;2023-04-24T02:34:21;5.88;;;2.00;;
69981;SDS011;57319;56.274;43.980;2023-04-24T02:36:48;3.28;;;2.33;;
69981;SDS011;57319;56.274;43.980;2023-04-24T02:39:14;4.28;;;2.33;;
69981;SDS011;57319;56.274;43.980;2023-04-24T02:41:42;25.45;;;4.38;;
69981;SDS011;57319;56.274;43.980;2023-04-24T02:44:08;2.28;;;2.03;;
69981;SDS011;57319;56.274;43.980;2023-04-24T02:46:34;7.15;;;2.50;;
69981;SDS011;57319;56.274;43.980;2023-04-24T02:48:59;4.97;;;2.90;;
69981;SDS011;57319;56.274;43.980;2023-04-24T02:51:25;6.47;;;2.45;;
69981;SDS011;57319;56.274;43.980;2023-04-24T02:53:52;7.03;;;2.35;;
69981;SDS011;57319;56.274;43.980;2023-04-24T02:56:18;8.65;;;2.30;;
69981;SDS011;57319;56.274;43.980;2023-04-24T02:58:43;4.30;;;2.30;;
69981;SDS011;57319;56.274;43.980;2023-04-24T03:01:09;6.93;;;2.35;;
69981;SDS011;57319;56.274;43.980;2023-04-24T03:03:35;5.57;;;2.47;;
69981;SDS011;57319;56.274;43.980;2023-04-24T03:06:02;5.55;;;2.40;;
69981;SDS011;57319;56.274;43.980;2023-04-24T03:08:27;8.38;;;2.20;;
69981;SDS011;57319;56.274;43.980;2023-04-24T03:10:53;2.65;;;2.45;;
69981;SDS011;57319;56.274;43.980;2023-04-24T03:13:19;11.00;;;2.60;;
69981;SDS011;57319;56.274;43.980;2023-04-24T03:15:44;6.32;;;2.40;;
69981;SDS011;57319;56.274;43.980;2023-04-24T03:18:11;6.65;;;2.20;;
69981;SDS011;57319;56.274;43.980;2023-04-24T03:20:37;12.45;;;2.70;;
69981;SDS011;57319;56.274;43.980;2023-04-24T03:23:03;6.38;;;2.35;;
69981;SDS011;57319;56.274;43.980;2023-04-24T03:25:29;4.82;;;2.60;;
69981;SDS011;57319;56.274;43.980;2023-04-24T03:27:54;9.10;;;2.58;;
69981;SDS011;57319;56.274;43.980;2023-04-24T03:30:20;7.55;;;2.58;;
69981;SDS011;57319;56.274;43.980;2023-04-24T03:32:46;7.82;;;2.53;;
69981;SDS011;57319;56.274;43.980;2023-04-24T03:35:12;3.72;;;2.63;;
69981;SDS011;57319;56.274;43.980;2023-04-24T03:37:37;6.35;;;2.60;;
69981;SDS011;57319;56.274;43.980;2023-04-24T03:40:03;8.15;;;2.42;;
69981;SDS011;57319;56.274;43.980;2023-04-24T03:42:31;14.57;;;5.55;;
69981;SDS011;57319;56.274;43.980;2023-04-24T03:44:56;9.35;;;2.58;;
69981;SDS011;57319;56.274;43.980;2023-04-24T03:47:22;10.05;;;2.35;;
69981;SDS011;57319;56.274;43.980;2023-04-24T03:49:48;7.78;;;2.53;;
69981;SDS011;57319;56.274;43.980;2023-04-24T03:52:13;9.40;;;2.67;;
69981;SDS011;57319;56.274;43.980;2023-04-24T03:54:39;9.73;;;2.88;;
69981;SDS011;57319;56.274;43.980;2023-04-24T03:57:05;13.77;;;3.33;;
69981;SDS011;57319;56.274;43.980;2023-04-24T03:59:30;16.08;;;2.85;;
69981;SDS011;57319;56.274;43.980;2023-04-24T04:01:56;8.75;;;2.70;;
69981;SDS011;57319;56.274;43.980;2023-04-24T04:04:22;10.13;;;2.92;;
69981;SDS011;57319;56.274;43.980;2023-04-24T04:06:47;9.50;;;3.15;;
69981;SDS011;57319;56.274;43.980;2023-04-24T04:09:14;8.00;;;3.60;;
69981;SDS011;57319;56.274;43.980;2023-04-24T04:11:40;5.20;;;3.00;;
69981;SDS011;57319;56.274;43.980;2023-04-24T04:14:05;12.80;;;3.13;;
69981;SDS011;57319;56.274;43.980;2023-04-24T04:16:31;17.60;;;3.05;;
69981;SDS011;57319;56.274;43.980;2023-04-24T04:18:57;3.78;;;2.80;;
69981;SDS011;57319;56.274;43.980;2023-04-24T04:21:22;3.97;;;2.60;;
69981;SDS011;57319;56.274;43.980;2023-04-24T04:23:48;17.33;;;3.20;;
69981;SDS011;57319;56.274;43.980;2023-04-24T04:26:14;8.93;;;3.35;;
69981;SDS011;57319;56.274;43.980;2023-04-24T04:28:39;6.50;;;2.97;;
69981;SDS011;57319;56.274;43.980;2023-04-24T04:31:06;13.10;;;3.30;;
69981;SDS011;57319;56.274;43.980;2023-04-24T04:33:33;5.40;;;3.47;;
69981;SDS011;57319;56.274;43.980;2023-04-24T04:35:59;9.95;;;3.53;;
69981;SDS011;57319;56.274;43.980;2023-04-24T04:38:25;5.25;;;3.50;;
69981;SDS011;57319;56.274;43.980;2023-04-24T04:40:55;14.15;;;3.45;;
69981;SDS011;57319;56.274;43.980;2023-04-24T04:43:24;8.65;;;3.65;;
69981;SDS011;57319;56.274;43.980;2023-04-24T04:45:50;9.32;;;3.05;;
69981;SDS011;57319;56.274;43.980;2023-04-24T04:48:16;11.15;;;2.65;;
69981;SDS011;57319;56.274;43.980;2023-04-24T04:50:44;11.35;;;3.40;;
69981;SDS011;57319;56.274;43.980;2023-04-24T04:53:09;8.48;;;3.97;;
69981;SDS011;57319;56.274;43.980;2023-04-24T04:55:36;10.27;;;2.95;;
69981;SDS011;57319;56.274;43.980;2023-04-24T04:58:02;12.40;;;3.40;;
69981;SDS011;57319;56.274;43.980;2023-04-24T05:00:28;2.75;;;2.50;;
69981;SDS011;57319;56.274;43.980;2023-04-24T05:02:59;8.48;;;2.97;;
69981;SDS011;57319;56.274;43.980;2023-04-24T05:05:25;7.68;;;2.97;;
69981;SDS011;57319;56.274;43.980;2023-04-24T05:07:51;17.08;;;2.90;;
69981;SDS011;57319;56.274;43.980;2023-04-24T05:10:18;4.88;;;2.65;;
69981;SDS011;57319;56.274;43.980;2023-04-24T05:12:43;34.45;;;3.88;;
69981;SDS011;57319;56.274;43.980;2023-04-24T05:15:09;14.00;;;4.15;;
69981;SDS011;57319;56.274;43.980;2023-04-24T05:17:35;16.27;;;3.97;;
69981;SDS011;57319;56.274;43.980;2023-04-24T05:20:02;19.90;;;4.30;;
69981;SDS011;57319;56.274;43.980;2023-04-24T05:22:31;9.38;;;2.63;;
69981;SDS011;57319;56.274;43.980;2023-04-24T05:24:56;21.20;;;4.28;;
69981;SDS011;57319;56.274;43.980;2023-04-24T05:27:22;11.93;;;3.42;;
69981;SDS011;57319;56.274;43.980;2023-04-24T05:29:48;24.08;;;3.78;;
69981;SDS011;57319;56.274;43.980;2023-04-24T05:32:14;13.00;;;4.28;;
69981;SDS011;57319;56.274;43.980;2023-04-24T05:34:40;14.32;;;3.90;;
69981;SDS011;57319;56.274;43.980;2023-04-24T05:37:06;17.45;;;4.15;;
69981;SDS011;57319;56.274;43.980;2023-04-24T05:39:34;18.83;;;6.47;;
69981;SDS011;57319;56.274;43.980;2023-04-24T05:42:00;9.63;;;3.40;;
69981;SDS011;57319;56.274;43.980;2023-04-24T05:44:27;23.05;;;3.20;;
69981;SDS011;57319;56.274;43.980;2023-04-24T05:47:01;12.45;;;3.30;;
69981;SDS011;57319;56.274;43.980;2023-04-24T05:49:27;13.68;;;3.80;;
69981;SDS011;57319;56.274;43.980;2023-04-24T05:51:53;19.13;;;3.20;;
69981;SDS011;57319;56.274;43.980;2023-04-24T05:54:18;12.90;;;3.55;;
69981;SDS011;57319;56.274;43.980;2023-04-24T05:56:44;18.90;;;3.25;;
69981;SDS011;57319;56.274;43.980;2023-04-24T05:59:10;18.23;;;3.80;;
69981;SDS011;57319;56.274;43.980;2023-04-24T06:01:36;25.50;;;5.18;;
69981;SDS011;57319;56.274;43.980;2023-04-24T06:04:02;24.63;;;4.68;;
69981;SDS011;57319;56.274;43.980;2023-04-24T06:06:28;19.85;;;4.00;;
69981;SDS011;57319;56.274;43.980;2023-04-24T06:08:54;24.98;;;5.38;;
69981;SDS011;57319;56.274;43.980;2023-04-24T06:11:20;16.67;;;4.50;;
69981;SDS011;57319;56.274;43.980;2023-04-24T06:13:46;18.30;;;4.00;;
69981;SDS011;57319;56.274;43.980;2023-04-24T06:16:14;10.57;;;4.15;;
69981;SDS011;57319;56.274;43.980;2023-04-24T06:18:40;10.93;;;2.88;;
69981;SDS011;57319;56.274;43.980;2023-04-24T06:21:06;10.27;;;3.50;;
69981;SDS011;57319;56.274;43.980;2023-04-24T06:23:32;8.20;;;3.60;;
69981;SDS011;57319;56.274;43.980;2023-04-24T06:25:58;12.88;;;3.72;;
69981;SDS011;57319;56.274;43.980;2023-04-24T06:28:25;6.93;;;3.30;;
69981;SDS011;57319;56.274;43.980;2023-04-24T06:30:51;5.13;;;3.47;;
69981;SDS011;57319;56.274;43.980;2023-04-24T06:33:18;8.82;;;3.35;;
69981;SDS011;57319;56.274;43.980;2023-04-24T06:35:43;12.25;;;3.47;;
69981;SDS011;57319;56.274;43.980;2023-04-24T06:38:09;15.60;;;4.22;;
69981;SDS011;57319;56.274;43.980;2023-04-24T06:40:35;6.35;;;3.22;;
69981;SDS011;57319;56.274;43.980;2023-04-24T06:43:01;12.02;;;3.30;;
69981;SDS011;57319;56.274;43.980;2023-04-24T06:45:28;5.57;;;3.13;;
69981;SDS011;57319;56.274;43.980;2023-04-24T06:47:54;17.27;;;3.47;;
69981;SDS011;57319;56.274;43.980;2023-04-24T06:50:20;9.15;;;2.85;;
69981;SDS011;57319;56.274;43.980;2023-04-24T06:52:47;7.50;;;2.90;;
69981;SDS011;57319;56.274;43.980;2023-04-24T06:55:13;22.30;;;3.22;;
69981;SDS011;57319;56.274;43.980;2023-04-24T06:57:40;6.63;;;2.95;;
69981;SDS011;57319;56.274;43.980;2023-04-24T07:00:06;9.10;;;2.58;;
69981;SDS011;57319;56.274;43.980;2023-04-24T07:02:34;6.28;;;2.45;;
69981;SDS011;57319;56.274;43.980;2023-04-24T07:05:00;23.90;;;3.40;;
69981;SDS011;57319;56.274;43.980;2023-04-24T07:07:30;6.28;;;2.80;;
69981;SDS011;57319;56.274;43.980;2023-04-24T07:09:56;3.65;;;2.70;;
69981;SDS011;57319;56.274;43.980;2023-04-24T07:12:22;9.13;;;3.40;;
69981;SDS011;57319;56.274;43.980;2023-04-24T07:14:50;8.48;;;2.80;;
69981;SDS011;57319;56.274;43.980;2023-04-24T07:17:16;4.60;;;2.85;;
69981;SDS011;57319;56.274;43.980;2023-04-24T07:19:42;12.20;;;2.85;;
69981;SDS011;57319;56.274;43.980;2023-04-24T07:22:08;6.38;;;2.90;;
69981;SDS011;57319;56.274;43.980;2023-04-24T07:24:36;2.97;;;2.50;;
69981;SDS011;57319;56.274;43.980;2023-04-24T07:27:02;12.98;;;4.47;;
69981;SDS011;57319;56.274;43.980;2023-04-24T07:29:29;9.45;;;2.63;;
69981;SDS011;57319;56.274;43.980;2023-04-24T07:31:55;4.40;;;2.53;;
69981;SDS011;57319;56.274;43.980;2023-04-24T07:34:21;6.97;;;2.75;;
69981;SDS011;57319;56.274;43.980;2023-04-24T07:36:47;10.55;;;2.92;;
69981;SDS011;57319;56.274;43.980;2023-04-24T07:39:12;9.30;;;2.60;;
69981;SDS011;57319;56.274;43.980;2023-04-24T07:41:38;4.50;;;2.67;;
69981;SDS011;57319;56.274;43.980;2023-04-24T07:44:04;13.40;;;7.60;;
69981;SDS011;57319;56.274;43.980;2023-04-24T07:46:30;15.07;;;3.55;;
69981;SDS011;57319;56.274;43.980;2023-04-24T07:48:56;13.93;;;3.00;;
69981;SDS011;57319;56.274;43.980;2023-04-24T07:51:21;11.43;;;3.28;;
69981;SDS011;57319;56.274;43.980;2023-04-24T07:53:47;10.82;;;2.95;;
69981;SDS011;57319;56.274;43.980;2023-04-24T07:56:13;5.15;;;3.40;;
69981;SDS011;57319;56.274;43.980;2023-04-24T07:58:38;5.32;;;2.83;;
69981;SDS011;57319;56.274;43.980;2023-04-24T08:01:05;19.10;;;4.13;;
69981;SDS011;57319;56.274;43.980;2023-04-24T08:03:30;5.38;;;3.63;;
69981;SDS011;57319;56.274;43.980;2023-04-24T08:05:56;10.32;;;4.07;;
69981;SDS011;57319;56.274;43.980;2023-04-24T08:08:22;6.53;;;4.05;;
69981;SDS011;57319;56.274;43.980;2023-04-24T08:10:49;7.18;;;3.80;;
69981;SDS011;57319;56.274;43.980;2023-04-24T08:13:16;6.78;;;4.18;;
69981;SDS011;57319;56.274;43.980;2023-04-24T08:15:42;4.70;;;3.65;;
69981;SDS011;57319;56.274;43.980;2023-04-24T08:18:07;23.08;;;4.53;;
69981;SDS011;57319;56.274;43.980;2023-04-24T08:20:34;15.05;;;3.90;;
69981;SDS011;57319;56.274;43.980;2023-04-24T08:23:00;6.03;;;3.70;;
69981;SDS011;57319;56.274;43.980;2023-04-24T08:25:26;5.38;;;3.65;;
69981;SDS011;57319;56.274;43.980;2023-04-24T08:27:51;8.70;;;3.00;;
69981;SDS011;57319;56.274;43.980;2023-04-24T08:30:17;12.70;;;2.95;;
69981;SDS011;57319;56.274;43.980;2023-04-24T08:32:43;14.52;;;3.42;;
69981;SDS011;57319;56.274;43.980;2023-04-24T08:35:09;8.48;;;3.50;;
69981;SDS011;57319;56.274;43.980;2023-04-24T08:37:35;12.35;;;3.10;;
69981;SDS011;57319;56.274;43.980;2023-04-24T08:40:01;21.00;;;3.10;;
69981;SDS011;57319;56.274;43.980;2023-04-24T08:42:36;6.35;;;2.90;;
69981;SDS011;57319;56.274;43.980;2023-04-24T08:45:02;7.40;;;2.92;;
69981;SDS011;57319;56.274;43.980;2023-04-24T08:47:30;8.60;;;2.85;;
69981;SDS011;57319;56.274;43.980;2023-04-24T08:49:57;4.57;;;2.90;;
69981;SDS011;57319;56.274;43.980;2023-04-24T08:52:25;11.13;;;3.22;;
69981;SDS011;57319;56.274;43.980;2023-04-24T08:54:51;6.82;;;3.00;;
69981;SDS011;57319;56.274;43.980;2023-04-24T08:57:18;8.05;;;2.92;;
69981;SDS011;57319;56.274;43.980;2023-04-24T08:59:45;6.32;;;2.95;;
69981;SDS011;57319;56.274;43.980;2023-04-24T09:02:11;3.70;;;2.20;;
69981;SDS011;57319;56.274;43.980;2023-04-24T09:04:38;9.63;;;2.67;;
69981;SDS011;57319;56.274;43.980;2023-04-24T09:07:06;9.23;;;2.97;;
69981;SDS011;57319;56.274;43.980;2023-04-24T09:09:33;3.75;;;2.55;;
69981;SDS011;57319;56.274;43.980;2023-04-24T09:12:01;5.50;;;2.55;;
69981;SDS011;57319;56.274;43.980;2023-04-24T09:14:28;3.53;;;2.20;;
69981;SDS011;57319;56.274;43.980;2023-04-24T09:16:56;5.57;;;3.00;;
69981;SDS011;57319;56.274;43.980;2023-04-24T09:19:28;7.78;;;2.10;;
69981;SDS011;57319;56.274;43.980;2023-04-24T09:21:54;11.23;;;2.40;;
69981;SDS011;57319;56.274;43.980;2023-04-24T09:24:20;5.05;;;2.35;;
69981;SDS011;57319;56.274;43.980;2023-04-24T09:26:56;5.20;;;2.53;;
69981;SDS011;57319;56.274;43.980;2023-04-24T09:29:24;7.45;;;2.70;;
69981;SDS011;57319;56.274;43.980;2023-04-24T09:31:50;4.55;;;1.95;;
69981;SDS011;57319;56.274;43.980;2023-04-24T09:34:20;2.47;;;2.08;;
69981;SDS011;57319;56.274;43.980;2023-04-24T09:36:50;9.38;;;2.67;;
69981;SDS011;57319;56.274;43.980;2023-04-24T09:39:17;3.72;;;2.22;;
69981;SDS011;57319;56.274;43.980;2023-04-24T09:41:47;12.45;;;2.80;;
69981;SDS011;57319;56.274;43.980;2023-04-24T09:44:21;14.13;;;2.55;;
69981;SDS011;57319;56.274;43.980;2023-04-24T09:46:52;11.70;;;2.63;;
69981;SDS011;57319;56.274;43.980;2023-04-24T09:49:23;8.52;;;2.60;;
69981;SDS011;57319;56.274;43.980;2023-04-24T09:51:51;4.78;;;2.22;;
69981;SDS011;57319;56.274;43.980;2023-04-24T09:54:20;4.03;;;2.10;;
69981;SDS011;57319;56.274;43.980;2023-04-24T09:56:48;13.15;;;2.60;;
69981;SDS011;57319;56.274;43.980;2023-04-24T09:59:15;9.18;;;2.78;;
69981;SDS011;57319;56.274;43.980;2023-04-24T10:01:42;3.53;;;2.20;;
69981;SDS011;57319;56.274;43.980;2023-04-24T10:04:25;3.05;;;2.20;;
69981;SDS011;57319;56.274;43.980;2023-04-24T10:06:53;9.07;;;2.38;;
69981;SDS011;57319;56.274;43.980;2023-04-24T10:09:22;5.70;;;2.63;;
69981;SDS011;57319;56.274;43.980;2023-04-24T10:11:50;8.88;;;2.22;;
69981;SDS011;57319;56.274;43.980;2023-04-24T10:14:19;6.68;;;2.30;;
69981;SDS011;57319;56.274;43.980;2023-04-24T10:16:46;4.75;;;2.60;;
69981;SDS011;57319;56.274;43.980;2023-04-24T10:19:15;13.30;;;2.30;;
69981;SDS011;57319;56.274;43.980;2023-04-24T10:21:44;2.90;;;2.33;;
69981;SDS011;57319;56.274;43.980;2023-04-24T10:24:14;10.27;;;2.30;;
69981;SDS011;57319;56.274;43.980;2023-04-24T10:26:44;14.70;;;2.67;;
69981;SDS011;57319;56.274;43.980;2023-04-24T10:29:14;4.32;;;1.90;;
69981;SDS011;57319;56.274;43.980;2023-04-24T10:31:43;2.45;;;1.95;;
69981;SDS011;57319;56.274;43.980;2023-04-24T10:34:12;6.65;;;1.98;;
69981;SDS011;57319;56.274;43.980;2023-04-24T10:36:53;10.68;;;1.73;;
69981;SDS011;57319;56.274;43.980;2023-04-24T10:39:21;7.95;;;2.28;;
69981;SDS011;57319;56.274;43.980;2023-04-24T10:41:48;7.40;;;2.00;;
69981;SDS011;57319;56.274;43.980;2023-04-24T10:44:15;2.25;;;1.80;;
69981;SDS011;57319;56.274;43.980;2023-04-24T10:46:46;10.38;;;2.03;;
69981;SDS011;57319;56.274;43.980;2023-04-24T10:49:17;8.63;;;2.38;;
69981;SDS011;57319;56.274;43.980;2023-04-24T10:51:53;2.72;;;2.20;;
69981;SDS011;57319;56.274;43.980;2023-04-24T10:54:26;9.23;;;2.40;;
69981;SDS011;57319;56.274;43.980;2023-04-24T10:56:56;4.50;;;2.13;;
69981;SDS011;57319;56.274;43.980;2023-04-24T10:59:45;3.63;;;1.75;;
69981;SDS011;57319;56.274;43.980;2023-04-24T11:02:16;8.98;;;2.13;;
69981;SDS011;57319;56.274;43.980;2023-04-24T11:04:43;8.60;;;2.22;;
69981;SDS011;57319;56.274;43.980;2023-04-24T11:07:09;2.75;;;1.75;;
69981;SDS011;57319;56.274;43.980;2023-04-24T11:09:36;2.88;;;1.80;;
69981;SDS011;57319;56.274;43.980;2023-04-24T11:12:09;13.85;;;2.03;;
69981;SDS011;57319;56.274;43.980;2023-04-24T11:17:36;3.97;;;2.20;;
69981;SDS011;57319;56.274;43.980;2023-04-24T11:20:04;7.47;;;2.45;;
69981;SDS011;57319;56.274;43.980;2023-04-24T11:22:35;1.98;;;1.80;;
69981;SDS011;57319;56.274;43.980;2023-04-24T11:25:03;5.88;;;2.15;;
69981;SDS011;57319;56.274;43.980;2023-04-24T11:27:30;3.75;;;1.85;;
69981;SDS011;57319;56.274;43.980;2023-04-24T11:30:00;17.05;;;2.50;;
69981;SDS011;57319;56.274;43.980;2023-04-24T11:32:40;7.25;;;2.08;;
69981;SDS011;57319;56.274;43.980;2023-04-24T11:37:43;8.63;;;2.35;;
69981;SDS011;57319;56.274;43.980;2023-04-24T11:40:16;6.45;;;2.53;;
69981;SDS011;57319;56.274;43.980;2023-04-24T11:42:46;6.47;;;3.30;;
69981;SDS011;57319;56.274;43.980;2023-04-24T11:45:23;8.48;;;2.65;;
69981;SDS011;57319;56.274;43.980;2023-04-24T11:47:53;6.57;;;2.42;;
69981;SDS011;57319;56.274;43.980;2023-04-24T11:50:21;5.47;;;2.20;;
69981;SDS011;57319;56.274;43.980;2023-04-24T11:52:48;8.15;;;2.53;;
69981;SDS011;57319;56.274;43.980;2023-04-24T11:57:51;9.77;;;2.85;;
69981;SDS011;57319;56.274;43.980;2023-04-24T12:00:23;9.05;;;1.95;;
69981;SDS011;57319;56.274;43.980;2023-04-24T12:03:10;14.45;;;2.53;;
69981;SDS011;57319;56.274;43.980;2023-04-24T12:05:37;2.58;;;2.15;;
69981;SDS011;57319;56.274;43.980;2023-04-24T12:08:04;9.95;;;2.35;;
69981;SDS011;57319;56.274;43.980;2023-04-24T12:10:30;6.32;;;2.60;;
69981;SDS011;57319;56.274;43.980;2023-04-24T12:12:58;11.40;;;2.00;;
69981;SDS011;57319;56.274;43.980;2023-04-24T12:15:25;19.35;;;2.60;;
69981;SDS011;57319;56.274;43.980;2023-04-24T12:17:52;6.35;;;2.15;;
69981;SDS011;57319;56.274;43.980;2023-04-24T12:20:29;2.67;;;2.10;;
69981;SDS011;57319;56.274;43.980;2023-04-24T12:23:03;2.47;;;1.75;;
69981;SDS011;57319;56.274;43.980;2023-04-24T12:25:32;9.50;;;2.55;;
69981;SDS011;57319;56.274;43.980;2023-04-24T12:30:30;6.70;;;2.00;;
69981;SDS011;57319;56.274;43.980;2023-04-24T12:33:01;5.43;;;2.40;;
69981;SDS011;57319;56.274;43.980;2023-04-24T12:35:29;8.50;;;2.60;;
69981;SDS011;57319;56.274;43.980;2023-04-24T12:38:13;5.18;;;2.50;;
69981;SDS011;57319;56.274;43.980;2023-04-24T12:40:41;2.25;;;2.15;;
69981;SDS011;57319;56.274;43.980;2023-04-24T12:43:17;9.63;;;2.53;;
69981;SDS011;57319;56.274;43.980;2023-04-24T12:45:44;7.93;;;3.17;;
69981;SDS011;57319;56.274;43.980;2023-04-24T12:48:11;14.13;;;2.50;;
69981;SDS011;57319;56.274;43.980;2023-04-24T12:50:37;4.15;;;2.83;;
69981;SDS011;57319;56.274;43.980;2023-04-24T12:53:03;5.88;;;2.75;;
69981;SDS011;57319;56.274;43.980;2023-04-24T12:55:29;3.50;;;2.13;;
69981;SDS011;57319;56.274;43.980;2023-04-24T12:57:55;12.50;;;2.13;;
69981;SDS011;57319;56.274;43.980;2023-04-24T13:00:21;5.22;;;2.30;;
69981;SDS011;57319;56.274;43.980;2023-04-24T13:02:47;11.35;;;3.08;;
69981;SDS011;57319;56.274;43.980;2023-04-24T13:05:13;2.88;;;2.17;;
69981;SDS011;57319;56.274;43.980;2023-04-24T13:07:39;6.07;;;2.38;;
69981;SDS011;57319;56.274;43.980;2023-04-24T13:10:05;6.45;;;1.90;;
69981;SDS011;57319;56.274;43.980;2023-04-24T13:12:31;4.78;;;2.30;;
69981;SDS011;57319;56.274;43.980;2023-04-24T13:14:57;10.10;;;2.85;;
69981;SDS011;57319;56.274;43.980;2023-04-24T13:17:23;12.05;;;2.17;;
69981;SDS011;57319;56.274;43.980;2023-04-24T13:19:50;4.53;;;1.95;;
69981;SDS011;57319;56.274;43.980;2023-04-24T13:22:17;6.57;;;2.53;;
69981;SDS011;57319;56.274;43.980;2023-04-24T13:24:46;7.85;;;2.40;;
69981;SDS011;57319;56.274;43.980;2023-04-24T13:27:14;8.45;;;2.30;;
69981;SDS011;57319;56.274;43.980;2023-04-24T13:29:40;3.83;;;1.90;;
69981;SDS011;57319;56.274;43.980;2023-04-24T13:32:06;8.40;;;1.80;;
69981;SDS011;57319;56.274;43.980;2023-04-24T13:34:34;5.63;;;2.15;;
69981;SDS011;57319;56.274;43.980;2023-04-24T13:37:03;19.45;;;2.60;;
69981;SDS011;57319;56.274;43.980;2023-04-24T13:39:29;11.45;;;2.85;;
69981;SDS011;57319;56.274;43.980;2023-04-24T13:41:55;11.65;;;2.88;;
69981;SDS011;57319;56.274;43.980;2023-04-24T13:44:23;6.15;;;2.35;;
69981;SDS011;57319;56.274;43.980;2023-04-24T13:46:51;2.95;;;2.13;;
69981;SDS011;57319;56.274;43.980;2023-04-24T13:49:20;4.20;;;2.20;;
69981;SDS011;57319;56.274;43.980;2023-04-24T13:51:46;4.75;;;2.08;;
69981;SDS011;57319;56.274;43.980;2023-04-24T13:54:12;10.45;;;2.50;;
69981;SDS011;57319;56.274;43.980;2023-04-24T13:56:39;4.75;;;2.28;;
69981;SDS011;57319;56.274;43.980;2023-04-24T13:59:05;7.55;;;1.98;;
69981;SDS011;57319;56.274;43.980;2023-04-24T14:01:32;11.23;;;2.10;;
69981;SDS011;57319;56.274;43.980;2023-04-24T14:03:58;4.55;;;1.90;;
69981;SDS011;57319;56.274;43.980;2023-04-24T14:06:24;3.45;;;2.08;;
69981;SDS011;57319;56.274;43.980;2023-04-24T14:08:51;14.25;;;2.55;;
69981;SDS011;57319;56.274;43.980;2023-04-24T14:11:17;13.75;;;2.90;;
69981;SDS011;57319;56.274;43.980;2023-04-24T14:13:44;4.90;;;1.80;;
69981;SDS011;57319;56.274;43.980;2023-04-24T14:16:10;7.63;;;2.00;;
69981;SDS011;57319;56.274;43.980;2023-04-24T14:18:36;2.08;;;1.95;;
69981;SDS011;57319;56.274;43.980;2023-04-24T14:21:03;5.47;;;2.25;;
69981;SDS011;57319;56.274;43.980;2023-04-24T14:23:29;15.93;;;2.85;;
69981;SDS011;57319;56.274;43.980;2023-04-24T14:25:56;16.75;;;2.22;;
69981;SDS011;57319;56.274;43.980;2023-04-24T14:28:22;6.60;;;2.65;;
69981;SDS011;57319;56.274;43.980;2023-04-24T14:30:49;15.65;;;2.38;;
69981;SDS011;57319;56.274;43.980;2023-04-24T14:33:15;26.15;;;3.72;;
69981;SDS011;57319;56.274;43.980;2023-04-24T14:35:41;2.15;;;1.95;;
69981;SDS011;57319;56.274;43.980;2023-04-24T14:38:07;7.07;;;2.03;;
69981;SDS011;57319;56.274;43.980;2023-04-24T14:40:34;11.15;;;1.92;;